sensor_id;sensor_type;location;lat;lon;timestamp;P1;durP1;ratioP1;P2;durP2;ratioP2
7203;SDS011;3643;52.460;13.322;2024-02-26T00:00:33;11.27;;;6.07;;
7203;SDS011;3643;52.460;13.322;2024-02-26T00:03:02;10.17;;;5.90;;
7203;SDS011;3643;52.460;13.322;2024-02-26T00:05:30;11.40;;;6.00;;
7203;SDS011;3643;52.460;13.322;2024-02-26T00:07:58;10.77;;;6.50;;
7203;SDS011;3643;52.460;13.322;2024-02-26T00:10:31;9.77;;;6.30;;
7203;SDS011;3643;52.460;13.322;2024-02-26T00:12:59;10.83;;;7.13;;
7203;SDS011;3643;52.460;13.322;2024-02-26T00:15:28;12.27;;;6.43;;
7203;SDS011;3643;52.460;13.322;2024-02-26T00:17:56;10.07;;;6.80;;
7203;SDS011;3643;52.460;13.322;2024-02-26T00:20:24;10.23;;;6.53;;
7203;SDS011;3643;52.460;13.322;2024-02-26T00:22:52;10.70;;;6.80;;
7203;SDS011;3643;52.460;13.322;2024-02-26T00:25:20;11.97;;;7.27;;
7203;SDS011;3643;52.460;13.322;2024-02-26T00:27:48;10.10;;;6.70;;
7203;SDS011;3643;52.460;13.322;2024-02-26T00:30:16;13.03;;;7.97;;
7203;SDS011;3643;52.460;13.322;2024-02-26T00:32:45;13.73;;;8.83;;
7203;SDS011;3643;52.460;13.322;2024-02-26T00:35:14;13.17;;;8.00;;
7203;SDS011;3643;52.460;13.322;2024-02-26T00:37:42;14.63;;;8.00;;
7203;SDS011;3643;52.460;13.322;2024-02-26T00:40:10;12.03;;;8.17;;
7203;SDS011;3643;52.460;13.322;2024-02-26T00:42:39;15.03;;;8.77;;
7203;SDS011;3643;52.460;13.322;2024-02-26T00:45:11;15.73;;;9.37;;
7203;SDS011;3643;52.460;13.322;2024-02-26T00:47:39;13.40;;;8.70;;
7203;SDS011;3643;52.460;13.322;2024-02-26T00:50:10;19.07;;;9.70;;
7203;SDS011;3643;52.460;13.322;2024-02-26T00:52:38;13.27;;;8.73;;
7203;SDS011;3643;52.460;13.322;2024-02-26T00:55:06;11.83;;;8.27;;
7203;SDS011;3643;52.460;13.322;2024-02-26T00:57:35;12.37;;;8.00;;
7203;SDS011;3643;52.460;13.322;2024-02-26T01:00:03;12.97;;;7.97;;
7203;SDS011;3643;52.460;13.322;2024-02-26T01:02:33;12.13;;;8.47;;
7203;SDS011;3643;52.460;13.322;2024-02-26T01:05:01;12.87;;;8.97;;
7203;SDS011;3643;52.460;13.322;2024-02-26T01:07:30;15.87;;;9.60;;
7203;SDS011;3643;52.460;13.322;2024-02-26T01:10:03;17.60;;;10.00;;
7203;SDS011;3643;52.460;13.322;2024-02-26T01:12:32;16.23;;;10.17;;
7203;SDS011;3643;52.460;13.322;2024-02-26T01:15:00;16.13;;;10.27;;
7203;SDS011;3643;52.460;13.322;2024-02-26T01:17:29;19.53;;;11.37;;
7203;SDS011;3643;52.460;13.322;2024-02-26T01:19:57;15.93;;;10.00;;
7203;SDS011;3643;52.460;13.322;2024-02-26T01:22:25;19.50;;;11.07;;
7203;SDS011;3643;52.460;13.322;2024-02-26T01:24:55;15.27;;;9.23;;
7203;SDS011;3643;52.460;13.322;2024-02-26T01:27:23;13.60;;;8.60;;
7203;SDS011;3643;52.460;13.322;2024-02-26T01:29:53;14.57;;;8.80;;
7203;SDS011;3643;52.460;13.322;2024-02-26T01:32:21;11.93;;;7.97;;
7203;SDS011;3643;52.460;13.322;2024-02-26T01:34:49;12.37;;;7.67;;
7203;SDS011;3643;52.460;13.322;2024-02-26T01:37:17;12.67;;;8.00;;
7203;SDS011;3643;52.460;13.322;2024-02-26T01:39:45;10.03;;;7.17;;
7203;SDS011;3643;52.460;13.322;2024-02-26T01:42:14;12.93;;;7.57;;
7203;SDS011;3643;52.460;13.322;2024-02-26T01:44:43;10.53;;;6.80;;
7203;SDS011;3643;52.460;13.322;2024-02-26T01:47:11;10.83;;;7.87;;
7203;SDS011;3643;52.460;13.322;2024-02-26T01:49:40;10.27;;;7.30;;
7203;SDS011;3643;52.460;13.322;2024-02-26T01:52:08;13.33;;;7.77;;
7203;SDS011;3643;52.460;13.322;2024-02-26T01:54:37;12.17;;;7.57;;
7203;SDS011;3643;52.460;13.322;2024-02-26T01:57:06;12.03;;;9.00;;
7203;SDS011;3643;52.460;13.322;2024-02-26T01:59:37;13.47;;;8.20;;
7203;SDS011;3643;52.460;13.322;2024-02-26T02:02:08;15.30;;;9.87;;
7203;SDS011;3643;52.460;13.322;2024-02-26T02:04:38;13.33;;;9.40;;
7203;SDS011;3643;52.460;13.322;2024-02-26T02:07:07;15.03;;;9.03;;
7203;SDS011;3643;52.460;13.322;2024-02-26T02:09:35;14.53;;;9.57;;
7203;SDS011;3643;52.460;13.322;2024-02-26T02:12:04;11.57;;;8.43;;
7203;SDS011;3643;52.460;13.322;2024-02-26T02:14:33;13.37;;;8.60;;
7203;SDS011;3643;52.460;13.322;2024-02-26T02:17:02;12.70;;;8.10;;
7203;SDS011;3643;52.460;13.322;2024-02-26T02:19:31;10.90;;;8.00;;
7203;SDS011;3643;52.460;13.322;2024-02-26T02:22:00;11.53;;;7.53;;
7203;SDS011;3643;52.460;13.322;2024-02-26T02:24:28;12.67;;;7.40;;
7203;SDS011;3643;52.460;13.322;2024-02-26T02:26:56;11.27;;;7.87;;
7203;SDS011;3643;52.460;13.322;2024-02-26T02:29:24;12.20;;;8.07;;
7203;SDS011;3643;52.460;13.322;2024-02-26T02:31:53;11.17;;;7.60;;
7203;SDS011;3643;52.460;13.322;2024-02-26T02:34:22;10.57;;;7.50;;
7203;SDS011;3643;52.460;13.322;2024-02-26T02:36:51;10.70;;;7.93;;
7203;SDS011;3643;52.460;13.322;2024-02-26T02:39:21;11.53;;;7.53;;
7203;SDS011;3643;52.460;13.322;2024-02-26T02:41:49;10.00;;;7.83;;
7203;SDS011;3643;52.460;13.322;2024-02-26T02:44:17;10.30;;;7.70;;
7203;SDS011;3643;52.460;13.322;2024-02-26T02:46:45;9.77;;;6.90;;
7203;SDS011;3643;52.460;13.322;2024-02-26T02:49:13;9.53;;;7.30;;
7203;SDS011;3643;52.460;13.322;2024-02-26T02:51:42;14.80;;;8.03;;
7203;SDS011;3643;52.460;13.322;2024-02-26T02:54:10;10.27;;;7.70;;
7203;SDS011;3643;52.460;13.322;2024-02-26T02:56:39;9.80;;;7.10;;
7203;SDS011;3643;52.460;13.322;2024-02-26T02:59:07;12.57;;;7.77;;
7203;SDS011;3643;52.460;13.322;2024-02-26T03:01:35;11.40;;;8.10;;
7203;SDS011;3643;52.460;13.322;2024-02-26T03:04:03;12.80;;;8.60;;
7203;SDS011;3643;52.460;13.322;2024-02-26T03:06:31;12.03;;;7.80;;
7203;SDS011;3643;52.460;13.322;2024-02-26T03:08:59;16.00;;;8.30;;
7203;SDS011;3643;52.460;13.322;2024-02-26T03:11:28;12.73;;;8.57;;
7203;SDS011;3643;52.460;13.322;2024-02-26T03:13:58;14.00;;;8.40;;
7203;SDS011;3643;52.460;13.322;2024-02-26T03:16:26;12.57;;;8.43;;
7203;SDS011;3643;52.460;13.322;2024-02-26T03:18:54;11.23;;;8.07;;
7203;SDS011;3643;52.460;13.322;2024-02-26T03:21:22;12.63;;;8.47;;
7203;SDS011;3643;52.460;13.322;2024-02-26T03:23:52;12.87;;;8.77;;
7203;SDS011;3643;52.460;13.322;2024-02-26T03:26:20;13.17;;;8.17;;
7203;SDS011;3643;52.460;13.322;2024-02-26T03:28:48;14.53;;;8.90;;
7203;SDS011;3643;52.460;13.322;2024-02-26T03:31:18;19.10;;;11.10;;
7203;SDS011;3643;52.460;13.322;2024-02-26T03:33:47;17.77;;;10.57;;
7203;SDS011;3643;52.460;13.322;2024-02-26T03:36:16;17.30;;;10.47;;
7203;SDS011;3643;52.460;13.322;2024-02-26T03:38:44;17.50;;;9.67;;
7203;SDS011;3643;52.460;13.322;2024-02-26T03:41:12;13.13;;;8.93;;
7203;SDS011;3643;52.460;13.322;2024-02-26T03:43:41;15.07;;;8.23;;
7203;SDS011;3643;52.460;13.322;2024-02-26T03:46:11;11.83;;;8.17;;
7203;SDS011;3643;52.460;13.322;2024-02-26T03:48:41;11.50;;;8.13;;
7203;SDS011;3643;52.460;13.322;2024-02-26T03:51:10;10.37;;;7.23;;
7203;SDS011;3643;52.460;13.322;2024-02-26T03:53:38;10.10;;;7.30;;
7203;SDS011;3643;52.460;13.322;2024-02-26T03:56:06;12.10;;;7.10;;
7203;SDS011;3643;52.460;13.322;2024-02-26T03:58:34;11.23;;;7.80;;
7203;SDS011;3643;52.460;13.322;2024-02-26T04:01:02;9.40;;;7.13;;
7203;SDS011;3643;52.460;13.322;2024-02-26T04:03:30;10.20;;;6.63;;
7203;SDS011;3643;52.460;13.322;2024-02-26T04:06:00;13.67;;;6.93;;
7203;SDS011;3643;52.460;13.322;2024-02-26T04:08:28;10.33;;;7.30;;
7203;SDS011;3643;52.460;13.322;2024-02-26T04:10:57;9.73;;;7.23;;
7203;SDS011;3643;52.460;13.322;2024-02-26T04:13:25;9.23;;;7.20;;
7203;SDS011;3643;52.460;13.322;2024-02-26T04:15:53;11.00;;;7.40;;
7203;SDS011;3643;52.460;13.322;2024-02-26T04:18:21;11.17;;;7.90;;
7203;SDS011;3643;52.460;13.322;2024-02-26T04:20:49;13.40;;;7.53;;
7203;SDS011;3643;52.460;13.322;2024-02-26T04:23:19;13.57;;;7.67;;
7203;SDS011;3643;52.460;13.322;2024-02-26T04:25:47;9.93;;;7.53;;
7203;SDS011;3643;52.460;13.322;2024-02-26T04:28:15;9.00;;;7.03;;
7203;SDS011;3643;52.460;13.322;2024-02-26T04:30:43;11.27;;;7.13;;
7203;SDS011;3643;52.460;13.322;2024-02-26T04:33:11;10.10;;;7.27;;
7203;SDS011;3643;52.460;13.322;2024-02-26T04:35:39;10.23;;;6.93;;
7203;SDS011;3643;52.460;13.322;2024-02-26T04:38:07;8.33;;;6.63;;
7203;SDS011;3643;52.460;13.322;2024-02-26T04:40:37;12.37;;;7.53;;
7203;SDS011;3643;52.460;13.322;2024-02-26T04:43:05;9.60;;;7.10;;
7203;SDS011;3643;52.460;13.322;2024-02-26T04:45:33;11.27;;;7.53;;
7203;SDS011;3643;52.460;13.322;2024-02-26T04:48:01;9.93;;;7.80;;
7203;SDS011;3643;52.460;13.322;2024-02-26T04:50:30;10.57;;;7.67;;
7203;SDS011;3643;52.460;13.322;2024-02-26T04:52:58;12.17;;;8.73;;
7203;SDS011;3643;52.460;13.322;2024-02-26T04:55:26;13.27;;;8.70;;
7203;SDS011;3643;52.460;13.322;2024-02-26T04:57:55;10.63;;;7.53;;
7203;SDS011;3643;52.460;13.322;2024-02-26T05:00:23;12.60;;;8.30;;
7203;SDS011;3643;52.460;13.322;2024-02-26T05:02:51;12.50;;;8.03;;
7203;SDS011;3643;52.460;13.322;2024-02-26T05:05:19;11.37;;;7.37;;
7203;SDS011;3643;52.460;13.322;2024-02-26T05:07:47;11.57;;;8.10;;
7203;SDS011;3643;52.460;13.322;2024-02-26T05:10:15;12.33;;;7.90;;
7203;SDS011;3643;52.460;13.322;2024-02-26T05:12:43;10.70;;;8.30;;
7203;SDS011;3643;52.460;13.322;2024-02-26T05:15:12;12.33;;;8.20;;
7203;SDS011;3643;52.460;13.322;2024-02-26T05:17:44;10.37;;;7.97;;
7203;SDS011;3643;52.460;13.322;2024-02-26T05:20:12;10.80;;;7.60;;
7203;SDS011;3643;52.460;13.322;2024-02-26T05:22:40;14.80;;;8.60;;
7203;SDS011;3643;52.460;13.322;2024-02-26T05:25:10;13.90;;;9.20;;
7203;SDS011;3643;52.460;13.322;2024-02-26T05:27:38;13.60;;;8.50;;
7203;SDS011;3643;52.460;13.322;2024-02-26T05:30:07;14.13;;;9.20;;
7203;SDS011;3643;52.460;13.322;2024-02-26T05:32:37;13.83;;;9.70;;
7203;SDS011;3643;52.460;13.322;2024-02-26T05:35:06;15.37;;;9.00;;
7203;SDS011;3643;52.460;13.322;2024-02-26T05:37:35;11.87;;;8.27;;
7203;SDS011;3643;52.460;13.322;2024-02-26T05:40:03;15.33;;;9.20;;
7203;SDS011;3643;52.460;13.322;2024-02-26T05:42:32;14.30;;;9.10;;
7203;SDS011;3643;52.460;13.322;2024-02-26T05:45:00;14.70;;;10.43;;
7203;SDS011;3643;52.460;13.322;2024-02-26T05:47:32;14.73;;;9.90;;
7203;SDS011;3643;52.460;13.322;2024-02-26T05:50:02;14.37;;;10.37;;
7203;SDS011;3643;52.460;13.322;2024-02-26T05:52:30;14.90;;;9.93;;
7203;SDS011;3643;52.460;13.322;2024-02-26T05:54:59;14.23;;;9.57;;
7203;SDS011;3643;52.460;13.322;2024-02-26T05:57:26;16.63;;;10.63;;
7203;SDS011;3643;52.460;13.322;2024-02-26T05:59:55;16.27;;;10.03;;
7203;SDS011;3643;52.460;13.322;2024-02-26T06:02:23;17.40;;;11.60;;
7203;SDS011;3643;52.460;13.322;2024-02-26T06:04:51;18.13;;;11.20;;
7203;SDS011;3643;52.460;13.322;2024-02-26T06:07:20;19.87;;;12.60;;
7203;SDS011;3643;52.460;13.322;2024-02-26T06:09:48;19.93;;;11.07;;
7203;SDS011;3643;52.460;13.322;2024-02-26T06:12:16;17.20;;;11.60;;
7203;SDS011;3643;52.460;13.322;2024-02-26T06:14:45;15.93;;;11.47;;
7203;SDS011;3643;52.460;13.322;2024-02-26T06:17:13;18.63;;;11.87;;
7203;SDS011;3643;52.460;13.322;2024-02-26T06:19:41;15.73;;;11.80;;
7203;SDS011;3643;52.460;13.322;2024-02-26T06:22:09;18.97;;;12.53;;
7203;SDS011;3643;52.460;13.322;2024-02-26T06:24:38;19.83;;;13.10;;
7203;SDS011;3643;52.460;13.322;2024-02-26T06:27:06;19.23;;;13.37;;
7203;SDS011;3643;52.460;13.322;2024-02-26T06:29:35;20.00;;;12.60;;
7203;SDS011;3643;52.460;13.322;2024-02-26T06:32:03;20.00;;;12.97;;
7203;SDS011;3643;52.460;13.322;2024-02-26T06:34:31;24.13;;;13.80;;
7203;SDS011;3643;52.460;13.322;2024-02-26T06:36:59;19.30;;;12.33;;
7203;SDS011;3643;52.460;13.322;2024-02-26T06:39:28;19.37;;;12.40;;
7203;SDS011;3643;52.460;13.322;2024-02-26T06:41:57;21.60;;;13.27;;
7203;SDS011;3643;52.460;13.322;2024-02-26T06:44:27;19.53;;;12.00;;
7203;SDS011;3643;52.460;13.322;2024-02-26T06:46:58;19.53;;;12.17;;
7203;SDS011;3643;52.460;13.322;2024-02-26T06:49:26;17.17;;;12.63;;
7203;SDS011;3643;52.460;13.322;2024-02-26T06:55:10;20.43;;;13.17;;
7203;SDS011;3643;52.460;13.322;2024-02-26T06:57:39;17.33;;;11.20;;
7203;SDS011;3643;52.460;13.322;2024-02-26T07:00:08;17.27;;;11.10;;
7203;SDS011;3643;52.460;13.322;2024-02-26T07:02:41;16.67;;;10.57;;
7203;SDS011;3643;52.460;13.322;2024-02-26T07:05:09;14.70;;;9.97;;
7203;SDS011;3643;52.460;13.322;2024-02-26T07:07:37;12.13;;;9.90;;
7203;SDS011;3643;52.460;13.322;2024-02-26T07:10:06;14.70;;;9.20;;
7203;SDS011;3643;52.460;13.322;2024-02-26T07:12:35;12.47;;;8.80;;
7203;SDS011;3643;52.460;13.322;2024-02-26T07:15:05;11.30;;;8.20;;
7203;SDS011;3643;52.460;13.322;2024-02-26T07:17:34;12.67;;;8.87;;
7203;SDS011;3643;52.460;13.322;2024-02-26T07:20:02;14.07;;;8.77;;
7203;SDS011;3643;52.460;13.322;2024-02-26T07:22:35;9.70;;;7.97;;
7203;SDS011;3643;52.460;13.322;2024-02-26T07:25:04;11.93;;;8.97;;
7203;SDS011;3643;52.460;13.322;2024-02-26T07:27:34;12.47;;;8.20;;
7203;SDS011;3643;52.460;13.322;2024-02-26T07:30:02;11.63;;;8.37;;
7203;SDS011;3643;52.460;13.322;2024-02-26T07:32:33;13.00;;;9.03;;
7203;SDS011;3643;52.460;13.322;2024-02-26T07:35:01;13.73;;;10.07;;
7203;SDS011;3643;52.460;13.322;2024-02-26T07:37:29;13.70;;;9.93;;
7203;SDS011;3643;52.460;13.322;2024-02-26T07:39:57;14.30;;;10.53;;
7203;SDS011;3643;52.460;13.322;2024-02-26T07:42:25;15.77;;;11.07;;
7203;SDS011;3643;52.460;13.322;2024-02-26T07:44:53;14.67;;;10.37;;
7203;SDS011;3643;52.460;13.322;2024-02-26T07:47:23;14.70;;;11.03;;
7203;SDS011;3643;52.460;13.322;2024-02-26T07:49:51;17.13;;;11.37;;
7203;SDS011;3643;52.460;13.322;2024-02-26T07:52:19;17.43;;;10.30;;
7203;SDS011;3643;52.460;13.322;2024-02-26T07:54:47;16.50;;;11.07;;
7203;SDS011;3643;52.460;13.322;2024-02-26T07:57:15;17.50;;;10.97;;
7203;SDS011;3643;52.460;13.322;2024-02-26T07:59:43;16.07;;;11.17;;
7203;SDS011;3643;52.460;13.322;2024-02-26T08:02:16;15.23;;;11.23;;
7203;SDS011;3643;52.460;13.322;2024-02-26T08:04:45;17.87;;;11.67;;
7203;SDS011;3643;52.460;13.322;2024-02-26T08:07:13;14.87;;;11.20;;
7203;SDS011;3643;52.460;13.322;2024-02-26T08:09:43;20.17;;;12.40;;
7203;SDS011;3643;52.460;13.322;2024-02-26T08:12:12;16.07;;;11.43;;
7203;SDS011;3643;52.460;13.322;2024-02-26T08:14:40;16.50;;;11.23;;
7203;SDS011;3643;52.460;13.322;2024-02-26T08:17:09;15.60;;;11.70;;
7203;SDS011;3643;52.460;13.322;2024-02-26T08:19:37;15.93;;;10.90;;
7203;SDS011;3643;52.460;13.322;2024-02-26T08:22:06;17.23;;;11.63;;
7203;SDS011;3643;52.460;13.322;2024-02-26T08:24:36;14.57;;;11.07;;
7203;SDS011;3643;52.460;13.322;2024-02-26T08:27:04;16.33;;;11.50;;
7203;SDS011;3643;52.460;13.322;2024-02-26T08:29:32;17.40;;;11.83;;
7203;SDS011;3643;52.460;13.322;2024-02-26T08:32:00;14.63;;;10.90;;
7203;SDS011;3643;52.460;13.322;2024-02-26T08:34:29;19.07;;;11.80;;
7203;SDS011;3643;52.460;13.322;2024-02-26T08:36:57;18.40;;;11.67;;
7203;SDS011;3643;52.460;13.322;2024-02-26T08:39:26;20.30;;;11.27;;
7203;SDS011;3643;52.460;13.322;2024-02-26T08:41:54;16.23;;;10.90;;
7203;SDS011;3643;52.460;13.322;2024-02-26T08:44:22;16.73;;;12.07;;
7203;SDS011;3643;52.460;13.322;2024-02-26T08:46:51;18.13;;;12.20;;
7203;SDS011;3643;52.460;13.322;2024-02-26T08:49:19;15.63;;;11.90;;
7203;SDS011;3643;52.460;13.322;2024-02-26T08:51:50;19.67;;;12.40;;
7203;SDS011;3643;52.460;13.322;2024-02-26T08:54:18;15.33;;;11.53;;
7203;SDS011;3643;52.460;13.322;2024-02-26T08:56:47;16.47;;;11.33;;
7203;SDS011;3643;52.460;13.322;2024-02-26T08:59:15;18.43;;;11.50;;
7203;SDS011;3643;52.460;13.322;2024-02-26T09:01:48;19.83;;;11.93;;
7203;SDS011;3643;52.460;13.322;2024-02-26T09:04:16;18.53;;;12.07;;
7203;SDS011;3643;52.460;13.322;2024-02-26T09:06:44;15.30;;;11.43;;
7203;SDS011;3643;52.460;13.322;2024-02-26T09:09:14;17.00;;;12.80;;
7203;SDS011;3643;52.460;13.322;2024-02-26T09:11:43;18.17;;;13.37;;
7203;SDS011;3643;52.460;13.322;2024-02-26T09:14:12;17.57;;;12.20;;
7203;SDS011;3643;52.460;13.322;2024-02-26T09:16:40;16.40;;;12.10;;
7203;SDS011;3643;52.460;13.322;2024-02-26T09:19:08;19.00;;;13.20;;
7203;SDS011;3643;52.460;13.322;2024-02-26T09:21:37;21.33;;;12.83;;
7203;SDS011;3643;52.460;13.322;2024-02-26T09:24:09;18.60;;;12.60;;
7203;SDS011;3643;52.460;13.322;2024-02-26T09:26:38;19.73;;;11.93;;
7203;SDS011;3643;52.460;13.322;2024-02-26T09:29:06;16.70;;;11.57;;
7203;SDS011;3643;52.460;13.322;2024-02-26T09:31:36;19.60;;;11.77;;
7203;SDS011;3643;52.460;13.322;2024-02-26T09:34:06;17.30;;;10.90;;
7203;SDS011;3643;52.460;13.322;2024-02-26T09:36:34;17.80;;;12.13;;
7203;SDS011;3643;52.460;13.322;2024-02-26T09:39:02;17.30;;;11.33;;
7203;SDS011;3643;52.460;13.322;2024-02-26T09:41:31;18.67;;;12.17;;
7203;SDS011;3643;52.460;13.322;2024-02-26T09:43:59;18.57;;;12.60;;
7203;SDS011;3643;52.460;13.322;2024-02-26T09:46:31;39.00;;;24.77;;
7203;SDS011;3643;52.460;13.322;2024-02-26T09:49:02;38.10;;;20.17;;
7203;SDS011;3643;52.460;13.322;2024-02-26T09:51:30;27.23;;;17.53;;
7203;SDS011;3643;52.460;13.322;2024-02-26T09:53:59;25.90;;;17.00;;
7203;SDS011;3643;52.460;13.322;2024-02-26T09:56:31;31.47;;;19.37;;
7203;SDS011;3643;52.460;13.322;2024-02-26T09:58:59;27.50;;;15.83;;
7203;SDS011;3643;52.460;13.322;2024-02-26T10:01:30;21.40;;;13.63;;
7203;SDS011;3643;52.460;13.322;2024-02-26T10:04:02;15.97;;;11.93;;
7203;SDS011;3643;52.460;13.322;2024-02-26T10:06:31;21.93;;;14.57;;
7203;SDS011;3643;52.460;13.322;2024-02-26T10:08:59;16.03;;;10.73;;
7203;SDS011;3643;52.460;13.322;2024-02-26T10:11:31;17.83;;;11.57;;
7203;SDS011;3643;52.460;13.322;2024-02-26T10:14:02;14.93;;;10.30;;
7203;SDS011;3643;52.460;13.322;2024-02-26T10:16:30;13.20;;;9.37;;
7203;SDS011;3643;52.460;13.322;2024-02-26T10:18:59;14.73;;;9.73;;
7203;SDS011;3643;52.460;13.322;2024-02-26T10:21:29;15.30;;;9.93;;
7203;SDS011;3643;52.460;13.322;2024-02-26T10:23:57;13.37;;;9.60;;
7203;SDS011;3643;52.460;13.322;2024-02-26T10:26:25;13.67;;;9.33;;
7203;SDS011;3643;52.460;13.322;2024-02-26T10:28:53;15.53;;;9.17;;
7203;SDS011;3643;52.460;13.322;2024-02-26T10:31:28;15.70;;;10.03;;
7203;SDS011;3643;52.460;13.322;2024-02-26T10:33:57;12.87;;;9.17;;
7203;SDS011;3643;52.460;13.322;2024-02-26T10:36:33;14.57;;;9.70;;
7203;SDS011;3643;52.460;13.322;2024-02-26T10:39:13;13.83;;;8.57;;
7203;SDS011;3643;52.460;13.322;2024-02-26T10:41:43;12.47;;;8.43;;
7203;SDS011;3643;52.460;13.322;2024-02-26T10:44:12;14.03;;;9.03;;
7203;SDS011;3643;52.460;13.322;2024-02-26T10:46:44;12.43;;;8.27;;
7203;SDS011;3643;52.460;13.322;2024-02-26T10:49:15;11.97;;;7.97;;
7203;SDS011;3643;52.460;13.322;2024-02-26T10:51:49;14.27;;;8.40;;
7203;SDS011;3643;52.460;13.322;2024-02-26T10:54:22;12.33;;;7.80;;
7203;SDS011;3643;52.460;13.322;2024-02-26T10:56:54;11.23;;;7.57;;
7203;SDS011;3643;52.460;13.322;2024-02-26T10:59:24;9.27;;;7.37;;
7203;SDS011;3643;52.460;13.322;2024-02-26T11:01:53;9.00;;;7.33;;
7203;SDS011;3643;52.460;13.322;2024-02-26T11:04:22;11.20;;;7.67;;
7203;SDS011;3643;52.460;13.322;2024-02-26T11:06:55;10.27;;;7.50;;
7203;SDS011;3643;52.460;13.322;2024-02-26T11:09:25;9.93;;;7.17;;
7203;SDS011;3643;52.460;13.322;2024-02-26T11:11:53;12.83;;;7.27;;
7203;SDS011;3643;52.460;13.322;2024-02-26T11:14:22;11.17;;;7.63;;
7203;SDS011;3643;52.460;13.322;2024-02-26T11:16:52;9.90;;;7.30;;
7203;SDS011;3643;52.460;13.322;2024-02-26T11:19:22;14.30;;;6.80;;
7203;SDS011;3643;52.460;13.322;2024-02-26T11:21:55;12.43;;;7.17;;
7203;SDS011;3643;52.460;13.322;2024-02-26T11:24:28;10.10;;;7.00;;
7203;SDS011;3643;52.460;13.322;2024-02-26T11:26:57;9.77;;;6.40;;
7203;SDS011;3643;52.460;13.322;2024-02-26T11:29:29;10.30;;;7.47;;
7203;SDS011;3643;52.460;13.322;2024-02-26T11:32:01;9.57;;;6.67;;
7203;SDS011;3643;52.460;13.322;2024-02-26T11:34:30;9.97;;;7.10;;
7203;SDS011;3643;52.460;13.322;2024-02-26T11:37:03;9.27;;;7.23;;
7203;SDS011;3643;52.460;13.322;2024-02-26T11:39:37;10.90;;;7.93;;
7203;SDS011;3643;52.460;13.322;2024-02-26T11:42:07;9.40;;;6.57;;
7203;SDS011;3643;52.460;13.322;2024-02-26T11:44:37;9.30;;;6.63;;
7203;SDS011;3643;52.460;13.322;2024-02-26T11:47:11;8.33;;;6.87;;
7203;SDS011;3643;52.460;13.322;2024-02-26T11:49:40;9.47;;;6.60;;
7203;SDS011;3643;52.460;13.322;2024-02-26T11:52:10;10.27;;;6.83;;
7203;SDS011;3643;52.460;13.322;2024-02-26T11:54:39;9.50;;;6.47;;
7203;SDS011;3643;52.460;13.322;2024-02-26T11:57:21;6.67;;;5.97;;
7203;SDS011;3643;52.460;13.322;2024-02-26T11:59:54;8.20;;;6.00;;
7203;SDS011;3643;52.460;13.322;2024-02-26T12:02:38;11.50;;;7.00;;
7203;SDS011;3643;52.460;13.322;2024-02-26T12:05:11;9.23;;;5.97;;
7203;SDS011;3643;52.460;13.322;2024-02-26T12:07:45;9.07;;;5.60;;
7203;SDS011;3643;52.460;13.322;2024-02-26T12:10:14;10.03;;;5.80;;
7203;SDS011;3643;52.460;13.322;2024-02-26T12:12:49;6.93;;;5.67;;
7203;SDS011;3643;52.460;13.322;2024-02-26T12:15:22;9.50;;;6.53;;
7203;SDS011;3643;52.460;13.322;2024-02-26T12:17:50;7.93;;;6.60;;
7203;SDS011;3643;52.460;13.322;2024-02-26T12:20:19;9.63;;;7.00;;
7203;SDS011;3643;52.460;13.322;2024-02-26T12:22:49;7.43;;;6.07;;
7203;SDS011;3643;52.460;13.322;2024-02-26T12:25:19;10.00;;;6.37;;
7203;SDS011;3643;52.460;13.322;2024-02-26T12:27:49;8.20;;;6.70;;
7203;SDS011;3643;52.460;13.322;2024-02-26T12:30:17;26.33;;;18.03;;
7203;SDS011;3643;52.460;13.322;2024-02-26T12:32:45;10.40;;;7.40;;
7203;SDS011;3643;52.460;13.322;2024-02-26T12:35:14;11.90;;;7.47;;
7203;SDS011;3643;52.460;13.322;2024-02-26T12:37:43;13.30;;;8.13;;
7203;SDS011;3643;52.460;13.322;2024-02-26T12:40:13;17.53;;;11.33;;
7203;SDS011;3643;52.460;13.322;2024-02-26T12:42:41;12.93;;;8.30;;
7203;SDS011;3643;52.460;13.322;2024-02-26T12:45:10;13.83;;;9.90;;
7203;SDS011;3643;52.460;13.322;2024-02-26T12:47:39;9.33;;;6.90;;
7203;SDS011;3643;52.460;13.322;2024-02-26T12:50:07;10.70;;;6.70;;
7203;SDS011;3643;52.460;13.322;2024-02-26T12:52:37;9.20;;;7.03;;
7203;SDS011;3643;52.460;13.322;2024-02-26T12:55:07;12.87;;;6.87;;
7203;SDS011;3643;52.460;13.322;2024-02-26T12:57:37;9.27;;;7.03;;
7203;SDS011;3643;52.460;13.322;2024-02-26T13:00:06;11.97;;;8.37;;
7203;SDS011;3643;52.460;13.322;2024-02-26T13:02:37;11.43;;;7.60;;
7203;SDS011;3643;52.460;13.322;2024-02-26T13:05:06;9.60;;;7.77;;
7203;SDS011;3643;52.460;13.322;2024-02-26T13:07:40;12.53;;;8.07;;
7203;SDS011;3643;52.460;13.322;2024-02-26T13:10:09;9.90;;;7.57;;
7203;SDS011;3643;52.460;13.322;2024-02-26T13:12:43;10.43;;;7.10;;
7203;SDS011;3643;52.460;13.322;2024-02-26T13:15:14;9.17;;;7.13;;
7203;SDS011;3643;52.460;13.322;2024-02-26T13:17:43;11.33;;;6.77;;
7203;SDS011;3643;52.460;13.322;2024-02-26T13:20:11;8.67;;;6.10;;
7203;SDS011;3643;52.460;13.322;2024-02-26T13:22:41;9.57;;;5.97;;
7203;SDS011;3643;52.460;13.322;2024-02-26T13:25:09;7.57;;;6.00;;
7203;SDS011;3643;52.460;13.322;2024-02-26T13:27:37;9.70;;;6.27;;
7203;SDS011;3643;52.460;13.322;2024-02-26T13:30:08;9.30;;;6.47;;
7203;SDS011;3643;52.460;13.322;2024-02-26T13:32:38;8.30;;;6.20;;
7203;SDS011;3643;52.460;13.322;2024-02-26T13:35:08;8.60;;;5.50;;
7203;SDS011;3643;52.460;13.322;2024-02-26T13:37:37;8.37;;;5.73;;
7203;SDS011;3643;52.460;13.322;2024-02-26T13:40:06;7.03;;;5.07;;
7203;SDS011;3643;52.460;13.322;2024-02-26T13:42:35;6.73;;;4.83;;
7203;SDS011;3643;52.460;13.322;2024-02-26T13:45:04;6.40;;;4.70;;
7203;SDS011;3643;52.460;13.322;2024-02-26T13:47:35;7.93;;;5.17;;
7203;SDS011;3643;52.460;13.322;2024-02-26T13:50:03;6.33;;;4.90;;
7203;SDS011;3643;52.460;13.322;2024-02-26T13:52:32;7.00;;;4.50;;
7203;SDS011;3643;52.460;13.322;2024-02-26T13:55:00;9.13;;;4.37;;
7203;SDS011;3643;52.460;13.322;2024-02-26T13:57:29;7.30;;;4.73;;
7203;SDS011;3643;52.460;13.322;2024-02-26T13:59:57;5.47;;;3.97;;
7203;SDS011;3643;52.460;13.322;2024-02-26T14:02:27;4.77;;;3.70;;
7203;SDS011;3643;52.460;13.322;2024-02-26T14:04:55;4.53;;;3.40;;
7203;SDS011;3643;52.460;13.322;2024-02-26T14:07:23;6.93;;;4.33;;
7203;SDS011;3643;52.460;13.322;2024-02-26T14:09:51;5.53;;;4.37;;
7203;SDS011;3643;52.460;13.322;2024-02-26T14:12:19;6.13;;;4.13;;
7203;SDS011;3643;52.460;13.322;2024-02-26T14:14:50;6.93;;;4.43;;
7203;SDS011;3643;52.460;13.322;2024-02-26T14:17:19;5.20;;;4.23;;
7203;SDS011;3643;52.460;13.322;2024-02-26T14:19:49;5.60;;;4.17;;
7203;SDS011;3643;52.460;13.322;2024-02-26T14:22:17;6.93;;;4.50;;
7203;SDS011;3643;52.460;13.322;2024-02-26T14:24:45;5.30;;;4.60;;
7203;SDS011;3643;52.460;13.322;2024-02-26T14:27:13;7.33;;;4.80;;
7203;SDS011;3643;52.460;13.322;2024-02-26T14:29:42;7.70;;;5.00;;
7203;SDS011;3643;52.460;13.322;2024-02-26T14:32:10;6.37;;;4.63;;
7203;SDS011;3643;52.460;13.322;2024-02-26T14:34:38;5.20;;;4.63;;
7203;SDS011;3643;52.460;13.322;2024-02-26T14:37:08;6.67;;;4.70;;
7203;SDS011;3643;52.460;13.322;2024-02-26T14:39:37;7.13;;;4.43;;
7203;SDS011;3643;52.460;13.322;2024-02-26T14:42:06;5.43;;;4.73;;
7203;SDS011;3643;52.460;13.322;2024-02-26T14:44:34;8.00;;;4.70;;
7203;SDS011;3643;52.460;13.322;2024-02-26T14:47:02;8.63;;;5.60;;
7203;SDS011;3643;52.460;13.322;2024-02-26T14:49:30;8.20;;;5.40;;
7203;SDS011;3643;52.460;13.322;2024-02-26T14:51:59;9.13;;;5.33;;
7203;SDS011;3643;52.460;13.322;2024-02-26T14:54:31;8.67;;;5.43;;
7203;SDS011;3643;52.460;13.322;2024-02-26T14:57:03;6.73;;;5.63;;
7203;SDS011;3643;52.460;13.322;2024-02-26T14:59:32;7.40;;;5.60;;
7203;SDS011;3643;52.460;13.322;2024-02-26T15:02:03;10.67;;;5.90;;